createdAt,value
2022-08-28T00:00:45.046Z,52.22
2022-08-28T00:02:48.159Z,51.76
2022-08-28T00:04:50.363Z,51.81
2022-08-28T00:06:52.138Z,51.94
2022-08-28T00:08:53.869Z,52.26
2022-08-28T00:10:55.729Z,52.28
2022-08-28T00:12:58.468Z,52.03
2022-08-28T00:15:00.153Z,52.00
2022-08-28T00:17:01.935Z,52.24
2022-08-28T00:19:04.836Z,51.92
2022-08-28T00:21:06.790Z,52.23
2022-08-28T00:23:08.843Z,52.65
2022-08-28T00:25:13.242Z,53.11
2022-08-28T00:27:33.764Z,53.18
2022-08-28T00:29:35.520Z,52.72
2022-08-28T00:31:40.339Z,52.54
2022-08-28T00:33:43.356Z,52.91
2022-08-28T00:35:45.509Z,52.98
2022-08-28T00:37:48.133Z,53.09
2022-08-28T00:39:49.949Z,53.11
2022-08-28T00:41:52.820Z,52.22
2022-08-28T00:44:21.696Z,52.46
2022-08-28T00:46:23.942Z,52.45
2022-08-28T00:48:25.668Z,53.28
2022-08-28T00:50:51.187Z,53.45
2022-08-28T00:52:57.112Z,53.27
2022-08-28T00:55:08.638Z,53.68
2022-08-28T00:57:16.118Z,53.67
2022-08-28T00:59:20.147Z,53.97
2022-08-28T01:01:21.927Z,53.53
2022-08-28T01:03:25.173Z,53.60
2022-08-28T01:05:29.472Z,53.71
2022-08-28T01:07:31.431Z,53.62
2022-08-28T01:09:34.753Z,53.54
2022-08-28T01:11:36.491Z,53.65
2022-08-28T01:13:40.453Z,53.69
2022-08-28T01:15:43.043Z,53.76
2022-08-28T01:17:49.233Z,53.61
2022-08-28T01:19:57.151Z,53.81
2022-08-28T01:22:07.891Z,53.28
2022-08-28T01:24:13.036Z,53.46
2022-08-28T01:26:14.825Z,55.05
2022-08-28T01:28:17.026Z,56.12
2022-08-28T01:30:21.599Z,56.49
2022-08-28T01:32:35.321Z,56.26
2022-08-28T01:34:37.298Z,56.17
2022-08-28T01:36:39.588Z,56.12
2022-08-28T01:38:42.736Z,55.80
2022-08-28T01:40:48.356Z,55.49
2022-08-28T01:42:50.350Z,55.63
2022-08-28T01:44:54.148Z,55.77
2022-08-28T01:46:57.576Z,55.69
2022-08-28T01:49:00.294Z,55.11
2022-08-28T01:51:04.170Z,55.19
2022-08-28T01:53:07.104Z,55.50
2022-08-28T01:55:14.304Z,55.20
2022-08-28T01:57:16.119Z,55.28
2022-08-28T01:59:19.402Z,55.50
2022-08-28T02:01:22.509Z,55.13
2022-08-28T02:03:24.324Z,55.31
2022-08-28T02:05:30.062Z,55.24
2022-08-28T02:07:31.728Z,55.13
2022-08-28T02:09:33.573Z,54.80
2022-08-28T02:11:35.360Z,55.03
2022-08-28T02:13:37.919Z,54.70
2022-08-28T02:15:41.516Z,55.17
2022-08-28T02:17:43.113Z,55.30
2022-08-28T02:19:45.064Z,55.21
2022-08-28T02:21:46.743Z,55.07
2022-08-28T02:23:48.541Z,55.48
2022-08-28T02:25:50.929Z,55.47
2022-08-28T02:27:52.715Z,55.31
2022-08-28T02:29:55.528Z,55.79
2022-08-28T02:31:57.304Z,55.58
2022-08-28T02:33:58.989Z,55.96
2022-08-28T02:36:00.663Z,55.89
2022-08-28T02:38:02.936Z,56.28
2022-08-28T02:40:05.054Z,56.90
2022-08-28T02:42:06.889Z,56.84
2022-08-28T02:44:08.637Z,56.82
2022-08-28T02:46:10.483Z,57.00
2022-08-28T02:48:16.658Z,57.18
2022-08-28T02:50:19.979Z,57.09
2022-08-28T02:52:22.553Z,56.39
2022-08-28T02:54:26.475Z,56.35
2022-08-28T02:56:29.122Z,55.95
2022-08-28T02:58:32.767Z,56.01
2022-08-28T03:00:34.458Z,56.25
2022-08-28T03:02:36.743Z,55.74
2022-08-28T03:04:38.518Z,55.92
2022-08-28T03:06:40.148Z,55.91
2022-08-28T03:08:42.868Z,55.91
2022-08-28T03:10:44.588Z,55.67
2022-08-28T03:12:48.224Z,55.94
2022-08-28T03:14:53.765Z,55.80
2022-08-28T03:16:55.454Z,55.87
2022-08-28T03:18:57.124Z,55.68
2022-08-28T03:20:59.780Z,55.87
2022-08-28T03:23:20.186Z,55.70
2022-08-28T03:25:22.486Z,55.84
2022-08-28T03:27:24.170Z,55.89
2022-08-28T03:29:25.845Z,55.92
2022-08-28T03:31:29.081Z,55.80
2022-08-28T03:33:31.042Z,56.57
2022-08-28T03:35:32.735Z,56.69
2022-08-28T03:37:34.498Z,56.58
2022-08-28T03:39:36.153Z,56.52
2022-08-28T03:41:37.810Z,56.51
2022-08-28T03:43:40.216Z,56.69
2022-08-28T03:45:52.296Z,56.67
2022-08-28T03:47:54.019Z,56.71
2022-08-28T03:49:59.845Z,56.54
2022-08-28T03:52:01.890Z,56.77
2022-08-28T03:54:04.180Z,56.81
2022-08-28T03:56:08.029Z,57.17
2022-08-28T03:58:09.733Z,57.42
2022-08-28T04:00:20.489Z,57.68
2022-08-28T04:02:22.217Z,57.60
2022-08-28T04:04:23.950Z,57.46
2022-08-28T04:06:25.917Z,57.26
2022-08-28T04:08:28.712Z,57.53
2022-08-28T04:10:32.142Z,57.54
2022-08-28T04:12:35.355Z,57.34
2022-08-28T04:14:37.484Z,56.73
2022-08-28T04:16:39.256Z,56.60
2022-08-28T04:18:42.384Z,56.53
2022-08-28T04:20:46.459Z,56.63
2022-08-28T04:22:49.119Z,56.91
2022-08-28T04:24:56.878Z,56.72
2022-08-28T04:26:58.514Z,56.85
2022-08-28T04:29:00.232Z,57.14
2022-08-28T04:31:02.609Z,56.79
2022-08-28T04:33:06.255Z,57.04
2022-08-28T04:35:09.768Z,56.98
2022-08-28T04:37:12.381Z,56.78
2022-08-28T04:39:14.189Z,56.55
2022-08-28T04:41:19.698Z,55.78
2022-08-28T04:43:21.437Z,55.37
2022-08-28T04:45:23.053Z,55.27
2022-08-28T04:47:24.752Z,55.13
2022-08-28T04:49:27.782Z,54.99
2022-08-28T04:51:29.569Z,54.78
2022-08-28T04:53:31.265Z,54.77
2022-08-28T04:55:50.803Z,54.62
2022-08-28T04:57:54.808Z,54.54
2022-08-28T04:59:57.033Z,54.17
2022-08-28T05:01:58.750Z,54.43
2022-08-28T05:04:02.533Z,54.52
2022-08-28T05:06:04.814Z,54.92
2022-08-28T05:08:06.514Z,55.15
2022-08-28T05:10:08.672Z,55.05
2022-08-28T05:12:16.093Z,54.48
2022-08-28T05:14:17.830Z,54.54
2022-08-28T05:16:20.968Z,54.85
2022-08-28T05:18:24.201Z,55.87
2022-08-28T05:20:26.231Z,57.63
2022-08-28T05:22:28.962Z,59.09
2022-08-28T05:24:30.650Z,59.27
2022-08-28T05:26:33.749Z,59.03
2022-08-28T05:28:36.581Z,59.11
2022-08-28T05:30:40.213Z,58.65
2022-08-28T05:32:42.213Z,58.43
2022-08-28T05:34:43.861Z,58.19
2022-08-28T05:36:45.541Z,58.24
2022-08-28T05:38:48.213Z,58.09
2022-08-28T05:40:49.838Z,57.11
2022-08-28T05:42:52.264Z,56.38
2022-08-28T05:44:54.694Z,55.70
2022-08-28T05:46:56.692Z,54.74
2022-08-28T05:49:00.247Z,54.28
2022-08-28T05:51:14.579Z,53.47
2022-08-28T05:53:18.099Z,53.06
2022-08-28T05:55:19.616Z,52.68
2022-08-28T05:57:21.258Z,52.09
2022-08-28T05:59:23.044Z,52.07
2022-08-28T06:01:28.575Z,51.88
2022-08-28T06:03:30.477Z,51.95
2022-08-28T06:05:32.084Z,51.69
2022-08-28T06:07:34.050Z,51.65
2022-08-28T06:09:35.805Z,51.15
2022-08-28T06:11:39.035Z,51.09
2022-08-28T06:13:46.352Z,50.91
2022-08-28T06:15:48.492Z,50.73
2022-08-28T06:17:50.122Z,50.30
2022-08-28T06:19:51.756Z,49.49
2022-08-28T06:21:59.010Z,49.39
2022-08-28T06:24:00.668Z,49.29
2022-08-28T06:26:02.949Z,48.99
2022-08-28T06:28:05.686Z,49.47
2022-08-28T06:30:08.975Z,50.08
2022-08-28T06:32:10.706Z,50.37
2022-08-28T06:34:12.978Z,50.32
2022-08-28T06:36:14.691Z,50.06
2022-08-28T06:38:17.703Z,50.44
2022-08-28T06:40:19.528Z,50.06
2022-08-28T06:42:21.553Z,49.95
2022-08-28T06:44:23.877Z,49.41
2022-08-28T06:46:26.778Z,49.19
2022-08-28T06:48:28.859Z,49.53
2022-08-28T06:50:30.548Z,49.28
2022-08-28T06:52:32.275Z,48.67
2022-08-28T06:54:34.347Z,48.33
2022-08-28T06:56:36.282Z,48.29
2022-08-28T06:58:50.215Z,48.00
2022-08-28T07:01:03.086Z,47.79
2022-08-28T07:03:06.048Z,47.84
2022-08-28T07:05:08.870Z,46.60
2022-08-28T07:07:11.312Z,46.85
2022-08-28T07:09:33.002Z,46.71
2022-08-28T07:11:35.812Z,46.28
2022-08-28T07:13:37.464Z,46.18
2022-08-28T07:15:41.899Z,46.06
2022-08-28T07:17:44.751Z,45.76
2022-08-28T07:19:46.554Z,45.50
2022-08-28T07:21:48.284Z,45.28
2022-08-28T07:23:50.182Z,45.35
2022-08-28T07:25:52.058Z,45.13
2022-08-28T07:27:53.754Z,45.20
2022-08-28T07:29:55.408Z,45.29
2022-08-28T07:31:59.155Z,45.35
2022-08-28T07:34:00.973Z,44.88
2022-08-28T07:36:03.495Z,44.83
2022-08-28T07:38:05.325Z,44.71
2022-08-28T07:40:08.643Z,44.54
2022-08-28T07:42:35.660Z,44.17
2022-08-28T07:44:49.807Z,45.16
2022-08-28T07:47:00.363Z,45.78
2022-08-28T07:49:02.391Z,45.79
2022-08-28T07:51:05.263Z,45.92
2022-08-28T07:53:07.089Z,46.17
2022-08-28T07:55:08.864Z,45.25
2022-08-28T07:57:10.540Z,45.65
2022-08-28T07:59:16.636Z,45.67
2022-08-28T08:01:19.793Z,45.48
2022-08-28T08:03:22.680Z,44.91
2022-08-28T08:05:25.781Z,44.13
2022-08-28T08:07:28.470Z,44.15
2022-08-28T08:09:30.261Z,43.41
2022-08-28T08:11:32.769Z,43.80
2022-08-28T08:13:35.232Z,44.27
2022-08-28T08:15:37.251Z,43.37
2022-08-28T08:17:39.298Z,43.58
2022-08-28T08:19:41.077Z,43.51
2022-08-28T08:21:46.716Z,42.46
2022-08-28T08:23:49.224Z,42.80
2022-08-28T08:26:00.394Z,42.42
2022-08-28T08:28:04.064Z,42.84
2022-08-28T08:30:06.148Z,43.46
2022-08-28T08:32:10.078Z,43.28
2022-08-28T08:34:12.012Z,43.04
2022-08-28T08:36:15.352Z,43.19
2022-08-28T08:38:16.989Z,42.46
2022-08-28T08:40:20.673Z,42.33
2022-08-28T08:42:28.896Z,41.83
2022-08-28T08:44:38.821Z,42.24
2022-08-28T08:46:46.348Z,41.77
2022-08-28T08:48:48.133Z,41.84
2022-08-28T08:50:49.882Z,41.78
2022-08-28T08:53:24.634Z,41.61
2022-08-28T08:55:38.541Z,41.05
2022-08-28T08:57:40.582Z,41.30
2022-08-28T08:59:42.474Z,41.31
2022-08-28T09:01:55.342Z,41.26
2022-08-28T09:04:39.860Z,41.36
2022-08-28T09:06:51.426Z,41.20
2022-08-28T09:08:58.141Z,41.34
2022-08-28T09:11:12.494Z,41.06
2022-08-28T09:13:55.227Z,40.56
2022-08-28T09:15:57.046Z,40.39
2022-08-28T09:18:14.391Z,39.95
2022-08-28T09:20:29.119Z,39.21
2022-08-28T09:22:35.773Z,39.11
2022-08-28T09:24:41.194Z,39.12
2022-08-28T09:26:43.262Z,38.86
2022-08-28T09:28:50.750Z,38.83
2022-08-28T09:31:04.438Z,38.46
2022-08-28T09:33:06.152Z,38.37
2022-08-28T09:35:29.098Z,38.30
2022-08-28T09:37:33.645Z,38.14
2022-08-28T09:39:38.277Z,38.57
2022-08-28T09:42:06.811Z,38.48
2022-08-28T09:44:14.928Z,38.17
2022-08-28T09:46:20.896Z,38.25
2022-08-28T09:48:24.878Z,38.11
2022-08-28T09:50:26.586Z,37.63
2022-08-28T09:52:28.264Z,37.46
2022-08-28T09:54:39.988Z,37.51
2022-08-28T09:56:42.328Z,37.52
2022-08-28T09:58:45.036Z,37.62
2022-08-28T10:00:55.354Z,37.01
2022-08-28T10:03:10.596Z,36.84
2022-08-28T10:05:19.092Z,36.48
2022-08-28T10:07:47.904Z,36.91
2022-08-28T10:09:52.338Z,35.47
2022-08-28T10:11:59.478Z,35.02
2022-08-28T10:14:10.661Z,34.18
2022-08-28T10:16:42.674Z,34.01
2022-08-28T10:18:56.505Z,34.34
2022-08-28T10:21:04.275Z,34.25
2022-08-28T10:23:33.889Z,33.89
2022-08-28T10:25:56.651Z,34.76
2022-08-28T10:28:19.913Z,34.47
2022-08-28T10:30:23.768Z,34.36
2022-08-28T10:33:00.047Z,34.17
2022-08-28T10:35:20.194Z,33.77
2022-08-28T10:37:37.610Z,34.53
2022-08-28T10:39:48.070Z,34.03
2022-08-28T10:41:55.812Z,33.87
2022-08-28T10:44:00.985Z,33.49
2022-08-28T10:46:12.453Z,33.00
2022-08-28T10:48:25.127Z,32.61
2022-08-28T10:50:42.580Z,32.76
2022-08-28T10:52:57.543Z,31.63
2022-08-28T10:55:05.611Z,31.52
2022-08-28T10:57:39.791Z,31.68
2022-08-28T10:59:42.488Z,30.85
2022-08-28T11:01:46.575Z,30.52
2022-08-28T11:03:49.961Z,30.35
2022-08-28T11:05:55.324Z,30.80
2022-08-28T11:07:59.714Z,30.71
2022-08-28T11:10:24.748Z,30.90
2022-08-28T11:12:29.419Z,31.06
2022-08-28T11:14:35.460Z,30.52
2022-08-28T11:16:44.571Z,30.43
2022-08-28T11:19:15.550Z,31.37
2022-08-28T11:21:30.456Z,31.75
2022-08-28T11:23:48.432Z,31.83
2022-08-28T11:25:58.833Z,31.22
2022-08-28T11:28:17.919Z,30.83
2022-08-28T11:30:32.714Z,31.17
2022-08-28T11:32:34.456Z,31.27
2022-08-28T11:34:59.257Z,30.86
2022-08-28T11:37:02.594Z,30.66
2022-08-28T11:39:13.301Z,30.08
2022-08-28T11:41:26.968Z,30.22
2022-08-28T11:43:28.594Z,29.83
2022-08-28T11:45:56.318Z,29.30
2022-08-28T11:48:16.451Z,29.02
2022-08-28T11:50:22.084Z,29.49
2022-08-28T11:52:23.647Z,29.73
2022-08-28T11:54:46.068Z,29.59
2022-08-28T11:57:07.155Z,29.51
2022-08-28T11:59:43.762Z,30.27
2022-08-28T12:01:45.629Z,29.76
2022-08-28T12:04:08.641Z,30.31
2022-08-28T12:06:12.055Z,30.57
2022-08-28T12:08:46.616Z,31.14
2022-08-28T12:10:48.426Z,31.25
2022-08-28T12:13:07.734Z,30.61
2022-08-28T12:15:11.332Z,30.58
2022-08-28T12:17:22.160Z,30.34
2022-08-28T12:19:40.235Z,30.35
2022-08-28T12:21:51.650Z,29.74
2022-08-28T12:24:09.853Z,29.40
2022-08-28T12:26:42.873Z,28.84
2022-08-28T12:28:56.912Z,29.30
2022-08-28T12:31:07.353Z,27.85
2022-08-28T12:33:21.893Z,28.04
2022-08-28T12:35:28.032Z,27.98
2022-08-28T12:37:39.698Z,27.82
2022-08-28T12:39:54.945Z,27.24
2022-08-28T12:41:57.497Z,27.76
2022-08-28T12:44:00.064Z,26.68
2022-08-28T12:46:07.178Z,28.21
2022-08-28T12:48:31.841Z,28.68
2022-08-28T12:50:36.791Z,27.95
2022-08-28T12:52:48.160Z,28.46
2022-08-28T12:54:51.592Z,28.00
2022-08-28T12:56:53.273Z,27.71
2022-08-28T12:58:54.873Z,26.71
2022-08-28T13:01:02.965Z,25.95
2022-08-28T13:03:07.585Z,26.48
2022-08-28T13:05:48.665Z,26.21
2022-08-28T13:07:55.169Z,25.65
2022-08-28T13:10:00.221Z,26.51
2022-08-28T13:12:02.979Z,26.05
2022-08-28T13:14:06.005Z,25.79
2022-08-28T13:16:12.695Z,25.29
2022-08-28T13:18:49.966Z,25.00
2022-08-28T13:20:51.930Z,24.65
2022-08-28T13:22:53.907Z,24.56
2022-08-28T13:25:03.364Z,24.27
2022-08-28T13:27:17.355Z,22.47
2022-08-28T13:29:24.067Z,20.94
2022-08-28T13:31:30.617Z,21.85
2022-08-28T13:33:32.843Z,22.40
2022-08-28T13:35:40.177Z,22.79
2022-08-28T13:37:53.638Z,23.03
2022-08-28T13:39:55.220Z,22.56
2022-08-28T13:42:00.165Z,23.37
2022-08-28T13:44:01.982Z,22.81
2022-08-28T13:46:03.621Z,22.99
2022-08-28T13:48:05.870Z,22.94
2022-08-28T13:50:08.417Z,22.12
2022-08-28T13:52:10.912Z,21.52
2022-08-28T13:54:13.024Z,22.02
2022-08-28T13:56:15.609Z,22.88
2022-08-28T13:58:17.773Z,22.75
2022-08-28T14:00:19.552Z,22.08
2022-08-28T14:02:40.550Z,22.34
2022-08-28T14:04:42.289Z,22.88
2022-08-28T14:06:44.496Z,23.35
2022-08-28T14:08:46.819Z,22.35
2022-08-28T14:10:48.881Z,22.29
2022-08-28T14:12:50.569Z,22.10
2022-08-28T14:14:52.781Z,22.10
2022-08-28T14:16:55.816Z,21.76
2022-08-28T14:18:59.493Z,21.97
2022-08-28T14:21:01.237Z,21.83
2022-08-28T14:23:02.985Z,21.99
2022-08-28T14:25:05.265Z,23.02
2022-08-28T14:27:07.245Z,23.92
2022-08-28T14:29:10.557Z,23.98
2022-08-28T14:31:14.592Z,24.46
2022-08-28T14:33:20.666Z,24.48
2022-08-28T14:35:22.641Z,24.65
2022-08-28T14:37:24.369Z,24.99
2022-08-28T14:39:27.527Z,24.68
2022-08-28T14:41:29.417Z,23.84
2022-08-28T14:43:31.656Z,23.95
2022-08-28T14:45:34.036Z,24.15
2022-08-28T14:47:36.253Z,23.79
2022-08-28T14:49:39.369Z,24.17
2022-08-28T14:51:42.960Z,24.03
2022-08-28T14:53:44.938Z,23.59
2022-08-28T14:55:48.965Z,21.69
2022-08-28T14:57:51.240Z,21.70
2022-08-28T14:59:53.122Z,22.40
2022-08-28T15:01:58.133Z,23.08
2022-08-28T15:04:00.063Z,22.85
2022-08-28T15:06:01.847Z,23.21
2022-08-28T15:08:07.338Z,23.40
2022-08-28T15:10:13.316Z,23.59
2022-08-28T15:12:16.618Z,24.06
2022-08-28T15:14:18.486Z,23.85
2022-08-28T15:16:30.179Z,24.00
2022-08-28T15:18:32.358Z,24.15
2022-08-28T15:20:39.001Z,24.02
2022-08-28T15:22:40.668Z,23.92
2022-08-28T15:24:42.501Z,23.84
2022-08-28T15:26:44.993Z,24.41
2022-08-28T15:28:46.709Z,26.00
2022-08-28T15:30:48.463Z,27.04
2022-08-28T15:32:50.107Z,27.49
2022-08-28T15:34:52.652Z,27.15
2022-08-28T15:36:55.946Z,28.29
2022-08-28T15:39:16.570Z,29.06
2022-08-28T15:41:24.370Z,29.70
2022-08-28T15:43:26.022Z,29.43
2022-08-28T15:45:27.711Z,29.91
2022-08-28T15:47:30.770Z,29.53
2022-08-28T15:49:36.143Z,29.59
2022-08-28T15:51:48.342Z,29.47
2022-08-28T15:53:50.093Z,29.54
2022-08-28T15:55:51.808Z,29.66
2022-08-28T15:57:55.175Z,29.92
2022-08-28T15:59:57.060Z,30.67
2022-08-28T16:01:58.842Z,31.18
2022-08-28T16:04:00.565Z,31.27
2022-08-28T16:06:02.549Z,31.11
2022-08-28T16:08:04.531Z,30.86
2022-08-28T16:10:10.197Z,31.07
2022-08-28T16:12:12.143Z,30.80
2022-08-28T16:14:16.812Z,31.11
2022-08-28T16:16:21.443Z,30.95
2022-08-28T16:18:23.376Z,30.92
2022-08-28T16:20:25.344Z,30.93
2022-08-28T16:22:27.068Z,31.37
2022-08-28T16:24:29.587Z,30.98
2022-08-28T16:26:31.351Z,31.26
2022-08-28T16:28:33.972Z,31.24
2022-08-28T16:30:37.683Z,31.81
2022-08-28T16:32:46.773Z,32.01
2022-08-28T16:34:49.606Z,32.10
2022-08-28T16:36:51.459Z,32.51
2022-08-28T16:38:59.721Z,32.44
2022-08-28T16:41:11.026Z,32.77
2022-08-28T16:43:13.613Z,32.99
2022-08-28T16:45:15.871Z,32.85
2022-08-28T16:47:17.553Z,33.00
2022-08-28T16:49:19.353Z,33.44
2022-08-28T16:51:21.578Z,33.28
2022-08-28T16:53:24.408Z,33.61
2022-08-28T16:55:29.275Z,33.65
2022-08-28T16:57:31.004Z,34.09
2022-08-28T16:59:32.660Z,33.83
2022-08-28T17:01:34.458Z,34.17
2022-08-28T17:03:38.163Z,34.50
2022-08-28T17:05:40.358Z,35.14
2022-08-28T17:07:44.189Z,35.89
2022-08-28T17:09:46.045Z,36.23
2022-08-28T17:11:52.148Z,36.96
2022-08-28T17:13:55.569Z,36.97
2022-08-28T17:15:57.292Z,37.07
2022-08-28T17:18:00.186Z,37.26
2022-08-28T17:20:02.585Z,37.80
2022-08-28T17:22:27.273Z,38.22
2022-08-28T17:24:30.167Z,38.10
2022-08-28T17:26:31.921Z,38.30
2022-08-28T17:28:33.595Z,38.34
2022-08-28T17:30:35.557Z,37.94
2022-08-28T17:32:37.331Z,37.83
2022-08-28T17:34:39.255Z,38.15
2022-08-28T17:36:42.430Z,37.83
2022-08-28T17:38:45.063Z,38.23
2022-08-28T17:40:46.791Z,38.21
2022-08-28T17:42:48.980Z,38.48
2022-08-28T17:44:51.133Z,38.46
2022-08-28T17:46:53.009Z,38.46
2022-08-28T17:48:55.600Z,38.87
2022-08-28T17:50:58.067Z,38.86
2022-08-28T17:52:59.728Z,38.51
2022-08-28T17:55:01.861Z,38.49
2022-08-28T17:57:03.533Z,38.67
2022-08-28T17:59:05.610Z,38.86
2022-08-28T18:01:07.782Z,38.60
2022-08-28T18:03:09.609Z,38.59
2022-08-28T18:05:12.288Z,38.85
2022-08-28T18:07:14.212Z,39.22
2022-08-28T18:09:15.911Z,39.20
2022-08-28T18:11:18.674Z,39.69
2022-08-28T18:13:20.612Z,39.75
2022-08-28T18:15:24.037Z,39.62
2022-08-28T18:17:25.821Z,39.22
2022-08-28T18:19:28.474Z,39.44
2022-08-28T18:21:30.967Z,39.27
2022-08-28T18:23:32.820Z,39.16
2022-08-28T18:25:50.985Z,39.13
2022-08-28T18:27:53.043Z,39.33
2022-08-28T18:29:54.964Z,39.82
2022-08-28T18:31:57.404Z,39.93
2022-08-28T18:33:59.317Z,39.63
2022-08-28T18:36:01.364Z,39.99
2022-08-28T18:38:06.087Z,40.26
2022-08-28T18:40:08.681Z,40.13
2022-08-28T18:42:10.794Z,40.01
2022-08-28T18:44:15.479Z,40.46
2022-08-28T18:46:17.671Z,40.10
2022-08-28T18:48:19.833Z,40.83
2022-08-28T18:50:22.193Z,40.79
2022-08-28T18:52:24.063Z,40.89
2022-08-28T18:54:25.989Z,41.50
2022-08-28T18:56:32.024Z,41.79
2022-08-28T18:58:34.560Z,41.55
2022-08-28T19:00:37.791Z,41.65
2022-08-28T19:02:41.764Z,41.78
2022-08-28T19:04:44.688Z,41.46
2022-08-28T19:06:46.491Z,41.69
2022-08-28T19:08:48.553Z,41.54
2022-08-28T19:10:50.230Z,41.83
2022-08-28T19:12:51.870Z,41.60
2022-08-28T19:14:57.735Z,41.90
2022-08-28T19:17:00.180Z,41.65
2022-08-28T19:19:03.507Z,42.35
2022-08-28T19:21:12.158Z,42.17
2022-08-28T19:23:18.447Z,42.26
2022-08-28T19:25:28.170Z,42.59
2022-08-28T19:27:30.883Z,42.16
2022-08-28T19:29:32.614Z,42.32
2022-08-28T19:31:34.308Z,42.67
2022-08-28T19:33:36.196Z,42.56
2022-08-28T19:35:38.474Z,43.08
2022-08-28T19:37:42.672Z,42.95
2022-08-28T19:39:44.482Z,43.11
2022-08-28T19:41:57.699Z,42.96
2022-08-28T19:44:00.134Z,42.95
2022-08-28T19:46:01.859Z,43.14
2022-08-28T19:48:03.763Z,43.12
2022-08-28T19:50:08.632Z,43.03
2022-08-28T19:52:10.594Z,43.28
2022-08-28T19:54:14.383Z,42.89
2022-08-28T19:56:16.612Z,43.02
2022-08-28T19:58:18.383Z,43.38
2022-08-28T20:00:30.095Z,43.50
2022-08-28T20:02:31.818Z,43.10
2022-08-28T20:04:33.523Z,43.34
2022-08-28T20:06:36.102Z,43.34
2022-08-28T20:08:37.813Z,43.46
2022-08-28T20:10:39.625Z,43.60
2022-08-28T20:12:48.545Z,43.83
2022-08-28T20:14:50.867Z,44.08
2022-08-28T20:16:52.771Z,44.05
2022-08-28T20:18:55.753Z,44.08
2022-08-28T20:20:57.465Z,44.24
2022-08-28T20:22:59.122Z,44.24
2022-08-28T20:25:00.869Z,44.29
2022-08-28T20:27:02.581Z,44.08
2022-08-28T20:29:06.108Z,44.33
2022-08-28T20:31:16.738Z,44.52
2022-08-28T20:33:18.701Z,44.15
2022-08-28T20:35:22.166Z,44.43
2022-08-28T20:37:26.317Z,44.21
2022-08-28T20:39:28.462Z,44.17
2022-08-28T20:41:30.166Z,44.67
2022-08-28T20:43:32.054Z,44.50
2022-08-28T20:45:33.846Z,44.36
2022-08-28T20:47:35.552Z,44.79
2022-08-28T20:49:38.979Z,44.50
2022-08-28T20:52:00.915Z,44.53
2022-08-28T20:54:02.662Z,44.57
2022-08-28T20:56:08.249Z,44.51
2022-08-28T20:58:10.030Z,44.70
2022-08-28T21:00:12.636Z,45.00
2022-08-28T21:02:34.076Z,45.11
2022-08-28T21:04:37.034Z,44.98
2022-08-28T21:06:40.445Z,45.58
2022-08-28T21:08:43.206Z,45.41
2022-08-28T21:10:46.120Z,45.60
2022-08-28T21:12:47.830Z,45.41
2022-08-28T21:14:51.351Z,45.52
2022-08-28T21:16:53.537Z,45.59
2022-08-28T21:19:14.713Z,45.90
2022-08-28T21:21:17.135Z,45.85
2022-08-28T21:23:20.691Z,45.87
2022-08-28T21:25:24.621Z,45.89
2022-08-28T21:27:26.910Z,45.56
2022-08-28T21:29:28.682Z,45.70
2022-08-28T21:31:30.339Z,45.69
2022-08-28T21:33:31.954Z,45.90
2022-08-28T21:35:35.685Z,45.89
2022-08-28T21:37:38.122Z,45.63
2022-08-28T21:39:39.771Z,45.81
2022-08-28T21:41:42.215Z,45.96
2022-08-28T21:43:45.684Z,45.91
2022-08-28T21:45:56.738Z,45.80
2022-08-28T21:47:58.799Z,46.01
2022-08-28T21:50:00.596Z,46.19
2022-08-28T21:52:03.094Z,46.09
2022-08-28T21:54:05.766Z,46.39
2022-08-28T21:56:08.048Z,46.53
2022-08-28T21:58:09.702Z,46.65
2022-08-28T22:00:20.006Z,46.80
2022-08-28T22:02:22.481Z,46.85
2022-08-28T22:04:24.174Z,46.74
2022-08-28T22:06:26.553Z,46.83
2022-08-28T22:08:28.625Z,47.33
2022-08-28T22:10:30.417Z,47.61
2022-08-28T22:12:32.954Z,47.52
2022-08-28T22:14:35.518Z,47.74
2022-08-28T22:16:37.432Z,47.59
2022-08-28T22:18:39.382Z,47.66
2022-08-28T22:21:02.044Z,47.67
2022-08-28T22:23:09.739Z,48.02
2022-08-28T22:25:11.524Z,47.89
2022-08-28T22:27:13.917Z,48.01
2022-08-28T22:29:15.684Z,48.01
2022-08-28T22:31:17.433Z,48.22
2022-08-28T22:33:19.691Z,48.20
2022-08-28T22:35:21.469Z,48.05
2022-08-28T22:37:23.408Z,48.11
2022-08-28T22:39:25.049Z,48.31
2022-08-28T22:41:26.895Z,47.99
2022-08-28T22:43:28.593Z,47.93
2022-08-28T22:45:31.238Z,47.95
2022-08-28T22:47:33.018Z,48.16
2022-08-28T22:49:39.251Z,48.83
2022-08-28T22:51:41.499Z,49.47
2022-08-28T22:53:43.793Z,49.61
2022-08-28T22:55:45.432Z,50.29
2022-08-28T22:57:47.824Z,49.63
2022-08-28T22:59:50.025Z,48.82
2022-08-28T23:01:51.677Z,49.56
2022-08-28T23:03:53.608Z,49.59
2022-08-28T23:05:55.264Z,49.09
2022-08-28T23:07:57.515Z,49.42
2022-08-28T23:09:59.189Z,49.97
2022-08-28T23:12:01.559Z,50.64
2022-08-28T23:14:04.894Z,50.29
2022-08-28T23:16:07.127Z,50.03
2022-08-28T23:18:08.990Z,50.48
2022-08-28T23:20:14.061Z,50.49
2022-08-28T23:22:15.922Z,50.38
2022-08-28T23:24:17.821Z,50.50
2022-08-28T23:26:19.895Z,50.73
2022-08-28T23:28:21.684Z,50.78
2022-08-28T23:30:24.240Z,50.79
2022-08-28T23:32:26.443Z,51.08
2022-08-28T23:34:28.089Z,51.34
2022-08-28T23:36:29.824Z,51.62
2022-08-28T23:38:31.538Z,51.93
2022-08-28T23:40:34.013Z,51.62
2022-08-28T23:42:36.648Z,51.88
2022-08-28T23:44:38.519Z,51.91
2022-08-28T23:46:41.244Z,51.92
2022-08-28T23:48:44.058Z,51.89
2022-08-28T23:50:47.003Z,52.23
2022-08-28T23:52:49.193Z,52.32
2022-08-28T23:54:52.255Z,52.75
2022-08-28T23:56:53.939Z,52.59
2022-08-28T23:58:55.850Z,52.67
